Portada
METAR-TAF:

METAR-TAF

Aeroports :

Ko Samui, Tailàndia

latitud: 09-32-52N, longitud: 100-03-44E, altitud: 20 m

Observació

L'informe es va fer fa 59 minuts, a les 12:00 UTC
Vent 2 kt amb direcció variable
Temperatura 31°C
Humitat 71%
Pressió 1006 hPa
Visibilitat 10 km o més
Escasses núvols a una alçada de 2000 ft

METAR: VTSM 141200Z VRB02KT 9999 FEW020 31/25 Q1006 NOSIG

Hora: 19:59 (12:59 UTC)

Pronòstic

L'informe es va fer fa 1 hora i 59 minuts, a les 11:00 UTC
Pronòstic vàlid del 14 a les 12 UTC al 15 a les 12 UTC
Vent 5 kt del Sud-Est
Visibilitat 10 km o més
Escasses núvols a una alçada de 2000 ft

TAF: VTSM 141100Z 1412/1512 14005KT 9999 FEW020

Observacions i pronòstics meteorològics de més de 4000 aeroports (METAR i TAF).

Les estacions disponibles són els punts grocs i vermells al mapa.

Posi el ratolí al punt desitjat per veure el nom de l'estació.

Feu clic per veure les observacions i els pronòstics meteorològics.

Per canviar el mapa: feu clic els botons verds amb una creu de color negre per apropar; al botó verd amb un guió per allunyar la imatge; o en les fletxes verdes per a mapes adjacents.


METAR-TAF: